sensor_id;sensor_type;location;lat;lon;timestamp;P1;durP1;ratioP1;P2;durP2;ratioP2
8279;SDS011;8335;42.646;23.380;2024-01-11T00:01:38;59.33;;;30.13;;
8279;SDS011;8335;42.646;23.380;2024-01-11T00:04:05;71.77;;;30.43;;
8279;SDS011;8335;42.646;23.380;2024-01-11T00:06:31;69.13;;;31.37;;
8279;SDS011;8335;42.646;23.380;2024-01-11T00:08:59;66.57;;;30.70;;
8279;SDS011;8335;42.646;23.380;2024-01-11T00:11:26;81.37;;;33.13;;
8279;SDS011;8335;42.646;23.380;2024-01-11T00:13:53;60.77;;;32.07;;
8279;SDS011;8335;42.646;23.380;2024-01-11T00:16:19;68.73;;;30.87;;
8279;SDS011;8335;42.646;23.380;2024-01-11T00:18:46;65.07;;;31.90;;
8279;SDS011;8335;42.646;23.380;2024-01-11T00:21:13;68.80;;;32.50;;
8279;SDS011;8335;42.646;23.380;2024-01-11T00:23:39;69.73;;;33.60;;
8279;SDS011;8335;42.646;23.380;2024-01-11T00:26:07;71.37;;;33.43;;
8279;SDS011;8335;42.646;23.380;2024-01-11T00:28:34;58.03;;;28.60;;
8279;SDS011;8335;42.646;23.380;2024-01-11T00:31:01;53.13;;;26.67;;
8279;SDS011;8335;42.646;23.380;2024-01-11T00:33:27;51.13;;;24.97;;
8279;SDS011;8335;42.646;23.380;2024-01-11T00:35:54;39.50;;;19.43;;
8279;SDS011;8335;42.646;23.380;2024-01-11T00:38:21;35.90;;;17.97;;
8279;SDS011;8335;42.646;23.380;2024-01-11T00:40:47;36.43;;;17.47;;
8279;SDS011;8335;42.646;23.380;2024-01-11T00:43:16;36.67;;;17.67;;
8279;SDS011;8335;42.646;23.380;2024-01-11T00:45:44;38.17;;;19.10;;
8279;SDS011;8335;42.646;23.380;2024-01-11T00:48:12;43.00;;;20.83;;
8279;SDS011;8335;42.646;23.380;2024-01-11T00:50:38;47.17;;;21.23;;
8279;SDS011;8335;42.646;23.380;2024-01-11T00:53:05;37.77;;;19.53;;
8279;SDS011;8335;42.646;23.380;2024-01-11T00:55:33;43.17;;;20.93;;
8279;SDS011;8335;42.646;23.380;2024-01-11T00:58:00;47.13;;;22.93;;
8279;SDS011;8335;42.646;23.380;2024-01-11T01:00:28;42.90;;;21.50;;
8279;SDS011;8335;42.646;23.380;2024-01-11T01:02:54;37.77;;;18.70;;
8279;SDS011;8335;42.646;23.380;2024-01-11T01:05:21;34.50;;;17.43;;
8279;SDS011;8335;42.646;23.380;2024-01-11T01:07:48;28.20;;;15.87;;
8279;SDS011;8335;42.646;23.380;2024-01-11T01:10:15;30.33;;;15.20;;
8279;SDS011;8335;42.646;23.380;2024-01-11T01:12:41;28.93;;;15.40;;
8279;SDS011;8335;42.646;23.380;2024-01-11T01:15:08;29.27;;;13.33;;
8279;SDS011;8335;42.646;23.380;2024-01-11T01:17:36;18.67;;;11.20;;
8279;SDS011;8335;42.646;23.380;2024-01-11T01:20:04;20.70;;;10.67;;
8279;SDS011;8335;42.646;23.380;2024-01-11T01:22:31;21.27;;;10.23;;
8279;SDS011;8335;42.646;23.380;2024-01-11T01:24:58;24.13;;;10.20;;
8279;SDS011;8335;42.646;23.380;2024-01-11T01:27:25;28.10;;;11.37;;
8279;SDS011;8335;42.646;23.380;2024-01-11T01:29:51;24.80;;;11.27;;
8279;SDS011;8335;42.646;23.380;2024-01-11T01:32:18;20.93;;;11.27;;
8279;SDS011;8335;42.646;23.380;2024-01-11T01:34:46;25.90;;;11.77;;
8279;SDS011;8335;42.646;23.380;2024-01-11T01:37:13;28.00;;;12.80;;
8279;SDS011;8335;42.646;23.380;2024-01-11T01:39:39;21.50;;;12.70;;
8279;SDS011;8335;42.646;23.380;2024-01-11T01:42:07;19.40;;;11.70;;
8279;SDS011;8335;42.646;23.380;2024-01-11T01:44:34;24.37;;;12.37;;
8279;SDS011;8335;42.646;23.380;2024-01-11T01:47:00;27.97;;;12.27;;
8279;SDS011;8335;42.646;23.380;2024-01-11T01:49:29;26.07;;;12.73;;
8279;SDS011;8335;42.646;23.380;2024-01-11T01:51:57;24.47;;;12.23;;
8279;SDS011;8335;42.646;23.380;2024-01-11T01:54:24;23.87;;;13.10;;
8279;SDS011;8335;42.646;23.380;2024-01-11T01:56:51;26.43;;;14.40;;
8279;SDS011;8335;42.646;23.380;2024-01-11T01:59:19;30.93;;;14.23;;
8279;SDS011;8335;42.646;23.380;2024-01-11T02:01:46;28.23;;;14.63;;
8279;SDS011;8335;42.646;23.380;2024-01-11T02:04:14;27.03;;;13.77;;
8279;SDS011;8335;42.646;23.380;2024-01-11T02:06:41;27.87;;;13.10;;
8279;SDS011;8335;42.646;23.380;2024-01-11T02:09:12;24.43;;;13.07;;
8279;SDS011;8335;42.646;23.380;2024-01-11T02:11:39;24.03;;;12.97;;
8279;SDS011;8335;42.646;23.380;2024-01-11T02:14:07;25.17;;;13.70;;
8279;SDS011;8335;42.646;23.380;2024-01-11T02:16:34;27.00;;;13.33;;
8279;SDS011;8335;42.646;23.380;2024-01-11T02:19:01;20.83;;;11.60;;
8279;SDS011;8335;42.646;23.380;2024-01-11T02:21:27;26.40;;;13.97;;
8279;SDS011;8335;42.646;23.380;2024-01-11T02:24:00;27.47;;;14.50;;
8279;SDS011;8335;42.646;23.380;2024-01-11T02:26:29;27.83;;;14.03;;
8279;SDS011;8335;42.646;23.380;2024-01-11T02:28:56;27.20;;;14.27;;
8279;SDS011;8335;42.646;23.380;2024-01-11T02:31:22;27.40;;;14.37;;
8279;SDS011;8335;42.646;23.380;2024-01-11T02:33:50;28.13;;;13.50;;
8279;SDS011;8335;42.646;23.380;2024-01-11T02:36:18;25.53;;;13.77;;
8279;SDS011;8335;42.646;23.380;2024-01-11T02:38:45;23.97;;;13.43;;
8279;SDS011;8335;42.646;23.380;2024-01-11T02:41:14;27.40;;;12.77;;
8279;SDS011;8335;42.646;23.380;2024-01-11T02:43:45;24.53;;;12.43;;
8279;SDS011;8335;42.646;23.380;2024-01-11T02:46:13;29.67;;;13.87;;
8279;SDS011;8335;42.646;23.380;2024-01-11T02:48:40;23.70;;;12.63;;
8279;SDS011;8335;42.646;23.380;2024-01-11T02:51:07;25.43;;;12.03;;
8279;SDS011;8335;42.646;23.380;2024-01-11T02:53:34;19.53;;;10.83;;
8279;SDS011;8335;42.646;23.380;2024-01-11T02:56:00;24.10;;;11.97;;
8279;SDS011;8335;42.646;23.380;2024-01-11T02:58:28;18.63;;;10.20;;
8279;SDS011;8335;42.646;23.380;2024-01-11T03:00:55;20.00;;;8.97;;
8279;SDS011;8335;42.646;23.380;2024-01-11T03:03:22;12.00;;;7.57;;
8279;SDS011;8335;42.646;23.380;2024-01-11T03:05:48;13.73;;;7.33;;
8279;SDS011;8335;42.646;23.380;2024-01-11T03:08:15;11.13;;;6.90;;
8279;SDS011;8335;42.646;23.380;2024-01-11T03:10:42;11.23;;;6.53;;
8279;SDS011;8335;42.646;23.380;2024-01-11T03:13:08;10.00;;;5.73;;
8279;SDS011;8335;42.646;23.380;2024-01-11T03:15:37;11.83;;;6.50;;
8279;SDS011;8335;42.646;23.380;2024-01-11T03:18:04;12.30;;;7.00;;
8279;SDS011;8335;42.646;23.380;2024-01-11T03:20:30;12.47;;;6.80;;
8279;SDS011;8335;42.646;23.380;2024-01-11T03:22:57;12.83;;;6.77;;
8279;SDS011;8335;42.646;23.380;2024-01-11T03:25:24;11.87;;;6.77;;
8279;SDS011;8335;42.646;23.380;2024-01-11T03:27:50;9.93;;;6.57;;
8279;SDS011;8335;42.646;23.380;2024-01-11T03:30:17;12.40;;;6.80;;
8279;SDS011;8335;42.646;23.380;2024-01-11T03:32:45;12.27;;;6.87;;
8279;SDS011;8335;42.646;23.380;2024-01-11T03:35:12;10.93;;;6.77;;
8279;SDS011;8335;42.646;23.380;2024-01-11T03:37:39;10.60;;;6.73;;
8279;SDS011;8335;42.646;23.380;2024-01-11T03:40:06;12.47;;;7.27;;
8279;SDS011;8335;42.646;23.380;2024-01-11T03:42:33;13.50;;;7.43;;
8279;SDS011;8335;42.646;23.380;2024-01-11T03:45:00;13.27;;;7.57;;
8279;SDS011;8335;42.646;23.380;2024-01-11T03:47:26;10.10;;;6.60;;
8279;SDS011;8335;42.646;23.380;2024-01-11T03:49:54;13.53;;;7.50;;
8279;SDS011;8335;42.646;23.380;2024-01-11T03:52:21;12.50;;;7.20;;
8279;SDS011;8335;42.646;23.380;2024-01-11T03:54:48;10.70;;;6.40;;
8279;SDS011;8335;42.646;23.380;2024-01-11T03:57:15;14.40;;;7.13;;
8279;SDS011;8335;42.646;23.380;2024-01-11T03:59:42;12.17;;;7.70;;
8279;SDS011;8335;42.646;23.380;2024-01-11T04:02:10;12.57;;;7.17;;
8279;SDS011;8335;42.646;23.380;2024-01-11T04:04:36;14.67;;;7.83;;
8279;SDS011;8335;42.646;23.380;2024-01-11T04:07:05;15.63;;;7.77;;
8279;SDS011;8335;42.646;23.380;2024-01-11T04:09:31;13.97;;;8.40;;
8279;SDS011;8335;42.646;23.380;2024-01-11T04:11:58;14.23;;;8.47;;
8279;SDS011;8335;42.646;23.380;2024-01-11T04:14:25;16.33;;;7.90;;
8279;SDS011;8335;42.646;23.380;2024-01-11T04:16:51;19.40;;;8.90;;
8279;SDS011;8335;42.646;23.380;2024-01-11T04:19:19;17.83;;;9.67;;
8279;SDS011;8335;42.646;23.380;2024-01-11T04:21:46;16.67;;;9.10;;
8279;SDS011;8335;42.646;23.380;2024-01-11T04:24:14;20.30;;;9.60;;
8279;SDS011;8335;42.646;23.380;2024-01-11T04:26:41;17.27;;;10.03;;
8279;SDS011;8335;42.646;23.380;2024-01-11T04:29:07;19.43;;;9.73;;
8279;SDS011;8335;42.646;23.380;2024-01-11T04:31:34;17.53;;;9.83;;
8279;SDS011;8335;42.646;23.380;2024-01-11T04:34:01;21.13;;;10.97;;
8279;SDS011;8335;42.646;23.380;2024-01-11T04:36:27;18.77;;;10.13;;
8279;SDS011;8335;42.646;23.380;2024-01-11T04:38:54;19.87;;;10.57;;
8279;SDS011;8335;42.646;23.380;2024-01-11T04:41:22;19.93;;;10.67;;
8279;SDS011;8335;42.646;23.380;2024-01-11T04:43:49;20.10;;;10.10;;
8279;SDS011;8335;42.646;23.380;2024-01-11T04:46:16;22.50;;;10.73;;
8279;SDS011;8335;42.646;23.380;2024-01-11T04:48:43;24.80;;;11.23;;
8279;SDS011;8335;42.646;23.380;2024-01-11T04:51:11;20.77;;;10.17;;
8279;SDS011;8335;42.646;23.380;2024-01-11T04:53:39;21.50;;;11.80;;
8279;SDS011;8335;42.646;23.380;2024-01-11T04:56:06;22.53;;;11.50;;
8279;SDS011;8335;42.646;23.380;2024-01-11T04:58:35;21.20;;;11.97;;
8279;SDS011;8335;42.646;23.380;2024-01-11T05:01:03;23.60;;;12.03;;
8279;SDS011;8335;42.646;23.380;2024-01-11T05:03:30;21.63;;;11.43;;
8279;SDS011;8335;42.646;23.380;2024-01-11T05:05:56;26.07;;;13.13;;
8279;SDS011;8335;42.646;23.380;2024-01-11T05:08:25;24.20;;;12.93;;
8279;SDS011;8335;42.646;23.380;2024-01-11T05:10:52;25.00;;;12.30;;
8279;SDS011;8335;42.646;23.380;2024-01-11T05:13:19;21.87;;;11.90;;
8279;SDS011;8335;42.646;23.380;2024-01-11T05:15:47;26.07;;;12.87;;
8279;SDS011;8335;42.646;23.380;2024-01-11T05:18:14;29.93;;;14.17;;
8279;SDS011;8335;42.646;23.380;2024-01-11T05:20:41;29.17;;;14.87;;
8279;SDS011;8335;42.646;23.380;2024-01-11T05:23:08;42.10;;;17.23;;
8279;SDS011;8335;42.646;23.380;2024-01-11T05:25:34;34.20;;;17.23;;
8279;SDS011;8335;42.646;23.380;2024-01-11T05:28:01;33.77;;;17.60;;
8279;SDS011;8335;42.646;23.380;2024-01-11T05:30:28;36.60;;;18.13;;
8279;SDS011;8335;42.646;23.380;2024-01-11T05:32:56;38.03;;;18.23;;
8279;SDS011;8335;42.646;23.380;2024-01-11T05:35:23;36.63;;;17.47;;
8279;SDS011;8335;42.646;23.380;2024-01-11T05:37:52;28.57;;;16.83;;
8279;SDS011;8335;42.646;23.380;2024-01-11T05:40:19;33.67;;;18.70;;
8279;SDS011;8335;42.646;23.380;2024-01-11T05:42:46;33.20;;;17.97;;
8279;SDS011;8335;42.646;23.380;2024-01-11T05:45:13;30.13;;;16.43;;
8279;SDS011;8335;42.646;23.380;2024-01-11T05:47:42;32.63;;;17.43;;
8279;SDS011;8335;42.646;23.380;2024-01-11T05:50:10;36.53;;;17.47;;
8279;SDS011;8335;42.646;23.380;2024-01-11T05:52:37;36.77;;;17.27;;
8279;SDS011;8335;42.646;23.380;2024-01-11T05:55:04;36.97;;;18.20;;
8279;SDS011;8335;42.646;23.380;2024-01-11T05:57:31;38.17;;;17.90;;
8279;SDS011;8335;42.646;23.380;2024-01-11T05:59:58;38.30;;;17.00;;
8279;SDS011;8335;42.646;23.380;2024-01-11T06:02:24;34.37;;;17.70;;
8279;SDS011;8335;42.646;23.380;2024-01-11T06:04:51;29.77;;;16.33;;
8279;SDS011;8335;42.646;23.380;2024-01-11T06:07:19;34.10;;;16.87;;
8279;SDS011;8335;42.646;23.380;2024-01-11T06:09:46;33.17;;;16.33;;
8279;SDS011;8335;42.646;23.380;2024-01-11T06:12:12;31.07;;;15.27;;
8279;SDS011;8335;42.646;23.380;2024-01-11T06:14:39;29.03;;;15.47;;
8279;SDS011;8335;42.646;23.380;2024-01-11T06:17:06;30.13;;;15.20;;
8279;SDS011;8335;42.646;23.380;2024-01-11T06:19:36;30.40;;;15.27;;
8279;SDS011;8335;42.646;23.380;2024-01-11T06:22:03;27.83;;;15.33;;
8279;SDS011;8335;42.646;23.380;2024-01-11T06:24:31;31.97;;;15.80;;
8279;SDS011;8335;42.646;23.380;2024-01-11T06:26:57;32.10;;;16.10;;
8279;SDS011;8335;42.646;23.380;2024-01-11T06:29:24;29.60;;;15.20;;
8279;SDS011;8335;42.646;23.380;2024-01-11T06:31:50;26.73;;;14.37;;
8279;SDS011;8335;42.646;23.380;2024-01-11T06:34:16;28.67;;;13.13;;
8279;SDS011;8335;42.646;23.380;2024-01-11T06:36:43;25.27;;;13.33;;
8279;SDS011;8335;42.646;23.380;2024-01-11T06:39:10;26.67;;;12.37;;
8279;SDS011;8335;42.646;23.380;2024-01-11T06:41:39;22.83;;;12.50;;
8279;SDS011;8335;42.646;23.380;2024-01-11T06:44:04;24.70;;;12.13;;
8279;SDS011;8335;42.646;23.380;2024-01-11T06:46:31;23.17;;;13.07;;
8279;SDS011;8335;42.646;23.380;2024-01-11T06:48:58;21.17;;;12.37;;
8279;SDS011;8335;42.646;23.380;2024-01-11T06:51:25;21.97;;;11.83;;
8279;SDS011;8335;42.646;23.380;2024-01-11T06:53:51;20.83;;;12.30;;
8279;SDS011;8335;42.646;23.380;2024-01-11T06:56:19;26.63;;;12.73;;
8279;SDS011;8335;42.646;23.380;2024-01-11T06:58:47;23.00;;;13.03;;
8279;SDS011;8335;42.646;23.380;2024-01-11T07:01:14;26.50;;;13.77;;
8279;SDS011;8335;42.646;23.380;2024-01-11T07:03:41;26.77;;;15.20;;
8279;SDS011;8335;42.646;23.380;2024-01-11T07:06:08;28.00;;;16.13;;
8279;SDS011;8335;42.646;23.380;2024-01-11T07:08:35;23.60;;;13.87;;
8279;SDS011;8335;42.646;23.380;2024-01-11T07:11:02;26.63;;;14.73;;
8279;SDS011;8335;42.646;23.380;2024-01-11T07:13:29;21.93;;;12.87;;
8279;SDS011;8335;42.646;23.380;2024-01-11T07:15:57;23.20;;;13.50;;
8279;SDS011;8335;42.646;23.380;2024-01-11T07:18:24;21.93;;;12.83;;
8279;SDS011;8335;42.646;23.380;2024-01-11T07:20:51;25.70;;;13.20;;
8279;SDS011;8335;42.646;23.380;2024-01-11T07:23:19;21.53;;;12.87;;
8279;SDS011;8335;42.646;23.380;2024-01-11T07:25:45;23.13;;;13.00;;
8279;SDS011;8335;42.646;23.380;2024-01-11T07:28:12;24.17;;;14.33;;
8279;SDS011;8335;42.646;23.380;2024-01-11T07:30:39;23.07;;;14.03;;
8279;SDS011;8335;42.646;23.380;2024-01-11T07:33:07;26.57;;;14.07;;
8279;SDS011;8335;42.646;23.380;2024-01-11T07:35:34;24.93;;;14.97;;
8279;SDS011;8335;42.646;23.380;2024-01-11T07:38:01;24.23;;;15.60;;
8279;SDS011;8335;42.646;23.380;2024-01-11T07:40:27;32.50;;;19.07;;
8279;SDS011;8335;42.646;23.380;2024-01-11T07:42:55;33.17;;;19.77;;
8279;SDS011;8335;42.646;23.380;2024-01-11T07:45:21;37.97;;;22.60;;
8279;SDS011;8335;42.646;23.380;2024-01-11T07:47:48;44.20;;;24.30;;
8279;SDS011;8335;42.646;23.380;2024-01-11T07:50:16;50.67;;;28.23;;
8279;SDS011;8335;42.646;23.380;2024-01-11T07:52:43;56.37;;;31.70;;
8279;SDS011;8335;42.646;23.380;2024-01-11T07:55:10;58.40;;;33.50;;
8279;SDS011;8335;42.646;23.380;2024-01-11T07:57:38;60.43;;;36.17;;
8279;SDS011;8335;42.646;23.380;2024-01-11T08:00:05;66.87;;;36.63;;
8279;SDS011;8335;42.646;23.380;2024-01-11T08:02:33;71.13;;;38.67;;
8279;SDS011;8335;42.646;23.380;2024-01-11T08:05:00;75.30;;;42.97;;
8279;SDS011;8335;42.646;23.380;2024-01-11T08:07:28;74.07;;;41.87;;
8279;SDS011;8335;42.646;23.380;2024-01-11T08:09:55;71.23;;;39.33;;
8279;SDS011;8335;42.646;23.380;2024-01-11T08:12:22;69.97;;;37.87;;
8279;SDS011;8335;42.646;23.380;2024-01-11T08:14:50;69.30;;;38.17;;
8279;SDS011;8335;42.646;23.380;2024-01-11T08:17:16;65.43;;;33.67;;
8279;SDS011;8335;42.646;23.380;2024-01-11T08:19:43;53.27;;;32.97;;
8279;SDS011;8335;42.646;23.380;2024-01-11T08:22:10;63.13;;;34.83;;
8279;SDS011;8335;42.646;23.380;2024-01-11T08:24:38;62.20;;;37.37;;
8279;SDS011;8335;42.646;23.380;2024-01-11T08:27:04;65.23;;;37.40;;
8279;SDS011;8335;42.646;23.380;2024-01-11T08:29:32;64.33;;;37.00;;
8279;SDS011;8335;42.646;23.380;2024-01-11T08:31:58;75.47;;;38.00;;
8279;SDS011;8335;42.646;23.380;2024-01-11T08:34:26;69.73;;;39.97;;
8279;SDS011;8335;42.646;23.380;2024-01-11T08:36:53;66.43;;;38.57;;
8279;SDS011;8335;42.646;23.380;2024-01-11T08:39:19;70.53;;;37.77;;
8279;SDS011;8335;42.646;23.380;2024-01-11T08:41:49;65.87;;;37.90;;
8279;SDS011;8335;42.646;23.380;2024-01-11T08:44:17;70.77;;;38.17;;
8279;SDS011;8335;42.646;23.380;2024-01-11T08:46:43;60.23;;;36.43;;
8279;SDS011;8335;42.646;23.380;2024-01-11T08:49:10;74.27;;;41.03;;
8279;SDS011;8335;42.646;23.380;2024-01-11T08:51:37;63.93;;;38.30;;
8279;SDS011;8335;42.646;23.380;2024-01-11T08:54:04;62.70;;;37.90;;
8279;SDS011;8335;42.646;23.380;2024-01-11T08:56:34;59.73;;;35.27;;
8279;SDS011;8335;42.646;23.380;2024-01-11T08:59:02;68.50;;;37.50;;
8279;SDS011;8335;42.646;23.380;2024-01-11T09:01:28;62.43;;;37.47;;
8279;SDS011;8335;42.646;23.380;2024-01-11T09:03:57;57.30;;;37.70;;
8279;SDS011;8335;42.646;23.380;2024-01-11T09:06:23;65.83;;;38.70;;
8279;SDS011;8335;42.646;23.380;2024-01-11T09:08:50;59.30;;;37.30;;
8279;SDS011;8335;42.646;23.380;2024-01-11T09:11:17;62.03;;;36.80;;
8279;SDS011;8335;42.646;23.380;2024-01-11T09:13:44;60.83;;;39.13;;
8279;SDS011;8335;42.646;23.380;2024-01-11T09:16:15;64.80;;;37.20;;
8279;SDS011;8335;42.646;23.380;2024-01-11T09:18:42;63.63;;;35.93;;
8279;SDS011;8335;42.646;23.380;2024-01-11T09:21:09;57.93;;;33.63;;
8279;SDS011;8335;42.646;23.380;2024-01-11T09:23:35;59.70;;;34.00;;
8279;SDS011;8335;42.646;23.380;2024-01-11T09:26:02;52.43;;;33.27;;
8279;SDS011;8335;42.646;23.380;2024-01-11T09:28:29;56.87;;;34.07;;
8279;SDS011;8335;42.646;23.380;2024-01-11T09:30:56;54.30;;;31.87;;
8279;SDS011;8335;42.646;23.380;2024-01-11T09:33:26;67.00;;;35.17;;
8279;SDS011;8335;42.646;23.380;2024-01-11T09:35:53;58.57;;;33.93;;
8279;SDS011;8335;42.646;23.380;2024-01-11T09:38:20;64.27;;;34.67;;
8279;SDS011;8335;42.646;23.380;2024-01-11T09:40:47;59.50;;;32.80;;
8279;SDS011;8335;42.646;23.380;2024-01-11T09:43:19;62.63;;;32.30;;
8279;SDS011;8335;42.646;23.380;2024-01-11T09:45:45;55.07;;;33.97;;
8279;SDS011;8335;42.646;23.380;2024-01-11T09:48:14;60.00;;;33.20;;
8279;SDS011;8335;42.646;23.380;2024-01-11T09:50:43;53.90;;;31.23;;
8279;SDS011;8335;42.646;23.380;2024-01-11T09:53:10;57.60;;;33.07;;
8279;SDS011;8335;42.646;23.380;2024-01-11T09:55:37;55.27;;;33.63;;
8279;SDS011;8335;42.646;23.380;2024-01-11T09:58:03;56.33;;;34.53;;
8279;SDS011;8335;42.646;23.380;2024-01-11T10:00:31;70.50;;;35.40;;
8279;SDS011;8335;42.646;23.380;2024-01-11T10:02:58;55.03;;;33.50;;
8279;SDS011;8335;42.646;23.380;2024-01-11T10:05:25;50.10;;;33.03;;
8279;SDS011;8335;42.646;23.380;2024-01-11T10:07:54;58.70;;;32.97;;
8279;SDS011;8335;42.646;23.380;2024-01-11T10:10:21;58.77;;;34.97;;
8279;SDS011;8335;42.646;23.380;2024-01-11T10:12:48;56.33;;;33.03;;
8279;SDS011;8335;42.646;23.380;2024-01-11T10:15:15;59.37;;;33.70;;
8279;SDS011;8335;42.646;23.380;2024-01-11T10:17:42;56.60;;;33.30;;
8279;SDS011;8335;42.646;23.380;2024-01-11T10:20:10;60.73;;;33.17;;
8279;SDS011;8335;42.646;23.380;2024-01-11T10:22:39;55.67;;;32.57;;
8279;SDS011;8335;42.646;23.380;2024-01-11T10:25:10;55.13;;;33.20;;
8279;SDS011;8335;42.646;23.380;2024-01-11T10:27:39;49.67;;;31.67;;
8279;SDS011;8335;42.646;23.380;2024-01-11T10:30:24;52.20;;;30.43;;
8279;SDS011;8335;42.646;23.380;2024-01-11T10:32:51;53.13;;;30.77;;
8279;SDS011;8335;42.646;23.380;2024-01-11T10:35:18;50.17;;;30.87;;
8279;SDS011;8335;42.646;23.380;2024-01-11T10:37:45;54.97;;;30.40;;
8279;SDS011;8335;42.646;23.380;2024-01-11T10:40:19;53.40;;;32.37;;
8279;SDS011;8335;42.646;23.380;2024-01-11T10:42:49;51.30;;;30.70;;
8279;SDS011;8335;42.646;23.380;2024-01-11T10:45:18;49.37;;;30.37;;
8279;SDS011;8335;42.646;23.380;2024-01-11T10:47:47;55.43;;;30.03;;
8279;SDS011;8335;42.646;23.380;2024-01-11T10:50:18;56.37;;;31.23;;
8279;SDS011;8335;42.646;23.380;2024-01-11T10:52:49;54.63;;;30.67;;
8279;SDS011;8335;42.646;23.380;2024-01-11T10:55:24;49.37;;;30.57;;
8279;SDS011;8335;42.646;23.380;2024-01-11T10:57:51;42.97;;;28.93;;
8279;SDS011;8335;42.646;23.380;2024-01-11T11:00:20;48.30;;;30.33;;
8279;SDS011;8335;42.646;23.380;2024-01-11T11:02:47;50.73;;;30.53;;
8279;SDS011;8335;42.646;23.380;2024-01-11T11:05:18;51.70;;;30.53;;
8279;SDS011;8335;42.646;23.380;2024-01-11T11:07:46;51.43;;;29.90;;
8279;SDS011;8335;42.646;23.380;2024-01-11T11:10:14;49.40;;;30.43;;
8279;SDS011;8335;42.646;23.380;2024-01-11T11:12:43;48.27;;;29.53;;
8279;SDS011;8335;42.646;23.380;2024-01-11T11:15:12;49.30;;;28.73;;
8279;SDS011;8335;42.646;23.380;2024-01-11T11:17:39;52.23;;;29.07;;
8279;SDS011;8335;42.646;23.380;2024-01-11T11:20:07;52.17;;;30.23;;
8279;SDS011;8335;42.646;23.380;2024-01-11T11:22:37;57.90;;;29.33;;
8279;SDS011;8335;42.646;23.380;2024-01-11T11:25:06;52.83;;;28.67;;
8279;SDS011;8335;42.646;23.380;2024-01-11T11:27:35;51.50;;;29.67;;
8279;SDS011;8335;42.646;23.380;2024-01-11T11:30:04;47.47;;;27.40;;
8279;SDS011;8335;42.646;23.380;2024-01-11T11:32:35;53.57;;;31.43;;
8279;SDS011;8335;42.646;23.380;2024-01-11T11:35:02;52.90;;;31.13;;
8279;SDS011;8335;42.646;23.380;2024-01-11T11:37:30;49.57;;;31.07;;
8279;SDS011;8335;42.646;23.380;2024-01-11T11:39:57;51.60;;;32.07;;
8279;SDS011;8335;42.646;23.380;2024-01-11T11:42:25;51.90;;;31.10;;
8279;SDS011;8335;42.646;23.380;2024-01-11T11:44:53;53.33;;;30.57;;
8279;SDS011;8335;42.646;23.380;2024-01-11T11:47:24;51.10;;;30.77;;
8279;SDS011;8335;42.646;23.380;2024-01-11T11:50:02;55.27;;;31.63;;
8279;SDS011;8335;42.646;23.380;2024-01-11T11:52:31;54.37;;;32.03;;
8279;SDS011;8335;42.646;23.380;2024-01-11T11:54:59;58.67;;;32.83;;
8279;SDS011;8335;42.646;23.380;2024-01-11T11:57:27;54.77;;;31.53;;
8279;SDS011;8335;42.646;23.380;2024-01-11T11:59:54;55.00;;;31.97;;
8279;SDS011;8335;42.646;23.380;2024-01-11T12:02:25;52.63;;;31.57;;
8279;SDS011;8335;42.646;23.380;2024-01-11T12:04:52;53.27;;;31.40;;
8279;SDS011;8335;42.646;23.380;2024-01-11T12:07:19;48.87;;;30.40;;
8279;SDS011;8335;42.646;23.380;2024-01-11T12:09:48;57.30;;;31.17;;
8279;SDS011;8335;42.646;23.380;2024-01-11T12:12:15;49.17;;;31.43;;
8279;SDS011;8335;42.646;23.380;2024-01-11T12:14:42;51.40;;;29.53;;
8279;SDS011;8335;42.646;23.380;2024-01-11T12:17:11;56.10;;;30.17;;
8279;SDS011;8335;42.646;23.380;2024-01-11T12:19:39;48.97;;;27.47;;
8279;SDS011;8335;42.646;23.380;2024-01-11T12:22:06;44.63;;;23.77;;
8279;SDS011;8335;42.646;23.380;2024-01-11T12:24:32;46.87;;;24.20;;
8279;SDS011;8335;42.646;23.380;2024-01-11T12:26:59;43.90;;;23.73;;
8279;SDS011;8335;42.646;23.380;2024-01-11T12:29:28;43.97;;;23.73;;
8279;SDS011;8335;42.646;23.380;2024-01-11T12:31:56;41.40;;;23.93;;
8279;SDS011;8335;42.646;23.380;2024-01-11T12:34:24;38.63;;;23.40;;
8279;SDS011;8335;42.646;23.380;2024-01-11T12:36:53;48.57;;;24.50;;
8279;SDS011;8335;42.646;23.380;2024-01-11T12:39:19;39.03;;;23.77;;
8279;SDS011;8335;42.646;23.380;2024-01-11T12:41:47;36.17;;;22.63;;
8279;SDS011;8335;42.646;23.380;2024-01-11T12:44:14;33.47;;;21.57;;
8279;SDS011;8335;42.646;23.380;2024-01-11T12:46:43;37.40;;;22.30;;
8279;SDS011;8335;42.646;23.380;2024-01-11T12:49:10;35.27;;;21.10;;
8279;SDS011;8335;42.646;23.380;2024-01-11T12:51:37;34.43;;;19.83;;
8279;SDS011;8335;42.646;23.380;2024-01-11T12:54:06;32.87;;;19.00;;
8279;SDS011;8335;42.646;23.380;2024-01-11T12:56:40;34.83;;;20.13;;
8279;SDS011;8335;42.646;23.380;2024-01-11T12:59:07;40.27;;;23.40;;
8279;SDS011;8335;42.646;23.380;2024-01-11T13:01:34;46.23;;;24.43;;
8279;SDS011;8335;42.646;23.380;2024-01-11T13:04:01;41.93;;;24.47;;
8279;SDS011;8335;42.646;23.380;2024-01-11T13:06:29;44.50;;;23.50;;
8279;SDS011;8335;42.646;23.380;2024-01-11T13:08:56;40.10;;;24.30;;
8279;SDS011;8335;42.646;23.380;2024-01-11T13:11:24;38.90;;;22.10;;
8279;SDS011;8335;42.646;23.380;2024-01-11T13:13:51;36.80;;;20.77;;
8279;SDS011;8335;42.646;23.380;2024-01-11T13:16:18;33.00;;;21.37;;
8279;SDS011;8335;42.646;23.380;2024-01-11T13:18:44;37.50;;;20.77;;
8279;SDS011;8335;42.646;23.380;2024-01-11T13:21:11;36.07;;;19.37;;
8279;SDS011;8335;42.646;23.380;2024-01-11T13:23:38;34.27;;;20.00;;
8279;SDS011;8335;42.646;23.380;2024-01-11T13:26:05;41.63;;;19.20;;
8279;SDS011;8335;42.646;23.380;2024-01-11T13:28:34;43.47;;;25.70;;
8279;SDS011;8335;42.646;23.380;2024-01-11T13:31:01;48.63;;;28.80;;
8279;SDS011;8335;42.646;23.380;2024-01-11T13:33:28;55.97;;;27.83;;
8279;SDS011;8335;42.646;23.380;2024-01-11T13:35:54;54.60;;;29.80;;
8279;SDS011;8335;42.646;23.380;2024-01-11T13:38:21;53.97;;;28.97;;
8279;SDS011;8335;42.646;23.380;2024-01-11T13:40:48;53.37;;;28.70;;
8279;SDS011;8335;42.646;23.380;2024-01-11T13:43:15;52.80;;;30.27;;
8279;SDS011;8335;42.646;23.380;2024-01-11T13:45:43;51.93;;;28.50;;
8279;SDS011;8335;42.646;23.380;2024-01-11T13:48:10;49.17;;;28.07;;
8279;SDS011;8335;42.646;23.380;2024-01-11T13:50:37;51.83;;;27.97;;
8279;SDS011;8335;42.646;23.380;2024-01-11T13:53:04;47.87;;;24.83;;
8279;SDS011;8335;42.646;23.380;2024-01-11T13:55:31;45.43;;;24.33;;
8279;SDS011;8335;42.646;23.380;2024-01-11T13:58:03;47.20;;;22.53;;
8279;SDS011;8335;42.646;23.380;2024-01-11T14:00:30;45.47;;;23.67;;
8279;SDS011;8335;42.646;23.380;2024-01-11T14:02:58;20.23;;;12.83;;
8279;SDS011;8335;42.646;23.380;2024-01-11T14:05:25;16.37;;;8.93;;
8279;SDS011;8335;42.646;23.380;2024-01-11T14:07:51;9.57;;;5.93;;
8279;SDS011;8335;42.646;23.380;2024-01-11T14:10:23;13.40;;;5.97;;
8279;SDS011;8335;42.646;23.380;2024-01-11T14:12:50;8.63;;;5.40;;
8279;SDS011;8335;42.646;23.380;2024-01-11T14:15:17;7.47;;;5.37;;
8279;SDS011;8335;42.646;23.380;2024-01-11T14:17:43;8.47;;;5.87;;
8279;SDS011;8335;42.646;23.380;2024-01-11T14:20:12;8.40;;;5.60;;
8279;SDS011;8335;42.646;23.380;2024-01-11T14:22:39;10.10;;;6.00;;
8279;SDS011;8335;42.646;23.380;2024-01-11T14:25:07;8.97;;;5.87;;
8279;SDS011;8335;42.646;23.380;2024-01-11T14:27:36;10.10;;;6.07;;
8279;SDS011;8335;42.646;23.380;2024-01-11T14:30:03;10.97;;;5.80;;
8279;SDS011;8335;42.646;23.380;2024-01-11T14:32:31;9.03;;;5.80;;
8279;SDS011;8335;42.646;23.380;2024-01-11T14:34:58;8.03;;;5.70;;
8279;SDS011;8335;42.646;23.380;2024-01-11T14:37:29;12.03;;;6.70;;